createdAt,value
2022-08-28T00:01:08.250Z,1.30
2022-08-28T00:03:36.913Z,0.95
2022-08-28T00:06:06.200Z,1.85
2022-08-28T00:08:33.694Z,0.93
2022-08-28T00:11:01.153Z,1.33
2022-08-28T00:13:28.472Z,1.98
2022-08-28T00:16:00.856Z,2.00
2022-08-28T00:18:31.786Z,2.20
2022-08-28T00:21:00.167Z,1.88
2022-08-28T00:23:35.214Z,2.28
2022-08-28T00:26:32.093Z,1.90
2022-08-28T00:28:59.801Z,1.95
2022-08-28T00:31:27.400Z,2.95
2022-08-28T00:33:54.796Z,2.17
2022-08-28T00:36:22.181Z,2.17
2022-08-28T00:38:50.335Z,2.45
2022-08-28T00:41:24.889Z,2.15
2022-08-28T00:44:21.666Z,2.03
2022-08-28T00:46:52.543Z,3.47
2022-08-28T00:49:24.319Z,2.67
2022-08-28T00:52:08.168Z,1.50
2022-08-28T00:54:41.565Z,2.30
2022-08-28T00:57:28.716Z,2.60
2022-08-28T00:59:56.072Z,2.28
2022-08-28T01:02:23.588Z,2.65
2022-08-28T01:04:51.256Z,2.83
2022-08-28T01:07:19.093Z,2.72
2022-08-28T01:09:51.029Z,1.70
2022-08-28T01:14:52.162Z,3.50
2022-08-28T01:17:23.694Z,2.20
2022-08-28T01:19:58.401Z,2.28
2022-08-28T01:22:59.009Z,2.17
2022-08-28T01:25:33.822Z,2.05
2022-08-28T01:28:04.117Z,1.60
2022-08-28T01:30:32.527Z,1.70
2022-08-28T01:33:00.944Z,2.25
2022-08-28T01:35:33.019Z,1.75
2022-08-28T01:38:01.544Z,2.13
2022-08-28T01:40:38.113Z,2.45
2022-08-28T01:43:17.762Z,2.08
2022-08-28T01:45:49.118Z,1.80
2022-08-28T01:48:19.781Z,2.10
2022-08-28T01:50:47.668Z,3.22
2022-08-28T01:53:17.488Z,3.20
2022-08-28T01:55:46.620Z,2.70
2022-08-28T01:58:14.187Z,3.45
2022-08-28T02:00:42.183Z,3.45
2022-08-28T02:03:10.277Z,3.40
2022-08-28T02:05:38.677Z,3.55
2022-08-28T02:08:07.323Z,2.83
2022-08-28T02:10:37.573Z,2.47
2022-08-28T02:13:07.407Z,2.75
2022-08-28T02:15:36.521Z,1.95
2022-08-28T02:18:04.286Z,2.88
2022-08-28T02:20:33.598Z,3.35
2022-08-28T02:23:01.684Z,2.97
2022-08-28T02:25:29.851Z,2.95
2022-08-28T02:27:57.591Z,2.22
2022-08-28T02:30:25.131Z,4.43
2022-08-28T02:32:52.660Z,3.40
2022-08-28T02:35:23.840Z,3.75
2022-08-28T02:37:51.818Z,2.67
2022-08-28T02:40:23.957Z,2.65
2022-08-28T02:42:52.183Z,3.05
2022-08-28T02:45:20.907Z,2.55
2022-08-28T02:47:51.138Z,2.67
2022-08-28T02:50:19.798Z,2.65
2022-08-28T02:52:47.583Z,2.50
2022-08-28T02:55:17.109Z,2.58
2022-08-28T02:57:45.550Z,2.95
2022-08-28T03:00:16.985Z,3.95
2022-08-28T03:02:46.326Z,4.57
2022-08-28T03:05:16.951Z,3.08
2022-08-28T03:07:44.539Z,2.88
2022-08-28T03:10:12.241Z,4.05
2022-08-28T03:12:39.694Z,3.13
2022-08-28T03:15:08.221Z,2.92
2022-08-28T03:17:36.970Z,2.78
2022-08-28T03:20:10.557Z,3.05
2022-08-28T03:22:56.469Z,2.05
2022-08-28T03:25:24.825Z,2.55
2022-08-28T03:27:52.996Z,3.15
2022-08-28T03:30:22.005Z,1.90
2022-08-28T03:32:49.891Z,2.28
2022-08-28T03:35:17.750Z,2.00
2022-08-28T03:37:45.125Z,2.03
2022-08-28T03:40:13.890Z,2.67
2022-08-28T03:42:41.403Z,2.30
2022-08-28T03:45:10.918Z,1.83
2022-08-28T03:47:41.810Z,2.45
2022-08-28T03:50:11.856Z,2.05
2022-08-28T03:52:40.955Z,3.33
2022-08-28T03:55:10.585Z,2.08
2022-08-28T03:57:38.991Z,4.57
2022-08-28T04:00:09.455Z,2.75
2022-08-28T04:02:41.875Z,2.15
2022-08-28T04:05:10.982Z,3.30
2022-08-28T04:07:40.143Z,1.17
2022-08-28T04:10:08.617Z,1.90
2022-08-28T04:12:37.099Z,2.90
2022-08-28T04:15:06.931Z,1.75
2022-08-28T04:17:34.908Z,2.13
2022-08-28T04:20:02.374Z,2.85
2022-08-28T04:22:30.174Z,2.10
2022-08-28T04:24:57.540Z,1.48
2022-08-28T04:27:24.981Z,2.03
2022-08-28T04:29:52.518Z,3.22
2022-08-28T04:32:19.910Z,1.42
2022-08-28T04:34:47.414Z,2.03
2022-08-28T04:37:15.869Z,1.75
2022-08-28T04:39:43.833Z,2.22
2022-08-28T04:42:11.251Z,1.85
2022-08-28T04:44:38.921Z,1.92
2022-08-28T04:47:06.401Z,1.50
2022-08-28T04:49:33.814Z,1.58
2022-08-28T04:52:01.722Z,1.67
2022-08-28T04:54:29.200Z,1.05
2022-08-28T04:56:56.567Z,0.95
2022-08-28T04:59:24.098Z,1.20
2022-08-28T05:01:52.006Z,1.95
2022-08-28T05:04:20.175Z,1.80
2022-08-28T05:06:48.040Z,0.82
2022-08-28T05:09:18.373Z,1.73
2022-08-28T05:11:46.446Z,1.27
2022-08-28T05:14:16.291Z,0.28
2022-08-28T05:16:49.268Z,1.85
2022-08-28T05:19:18.871Z,1.98
2022-08-28T05:21:47.209Z,0.68
2022-08-28T05:24:16.776Z,0.98
2022-08-28T05:26:44.236Z,0.65
2022-08-28T05:29:16.993Z,0.80
2022-08-28T05:31:44.943Z,2.58
2022-08-28T05:34:15.284Z,0.73
2022-08-28T05:36:42.759Z,1.25
2022-08-28T05:39:11.644Z,1.05
2022-08-28T05:41:42.482Z,0.50
2022-08-28T05:44:14.744Z,1.00
2022-08-28T05:46:45.026Z,0.95
2022-08-28T05:49:13.575Z,1.00
2022-08-28T05:51:42.403Z,0.70
2022-08-28T05:54:10.765Z,0.40
2022-08-28T05:56:40.583Z,0.55
2022-08-28T05:59:09.073Z,0.57
2022-08-28T06:01:40.562Z,1.08
2022-08-28T06:04:12.140Z,1.05
2022-08-28T06:06:41.293Z,0.88
2022-08-28T06:09:24.240Z,0.90
2022-08-28T06:11:57.605Z,0.30
2022-08-28T06:14:25.867Z,1.13
2022-08-28T06:16:56.073Z,0.30
2022-08-28T06:19:25.808Z,1.63
2022-08-28T06:21:58.408Z,0.45
2022-08-28T06:24:28.029Z,0.70
2022-08-28T06:26:58.118Z,0.22
2022-08-28T06:29:27.449Z,0.45
2022-08-28T06:32:01.142Z,0.68
2022-08-28T06:34:29.159Z,0.77
2022-08-28T06:36:56.603Z,0.52
2022-08-28T06:39:24.549Z,0.80
2022-08-28T06:41:53.291Z,1.10
2022-08-28T06:44:21.740Z,0.60
2022-08-28T06:46:51.538Z,0.60
2022-08-28T06:49:19.231Z,0.17
2022-08-28T06:51:46.767Z,0.45
2022-08-28T06:54:21.118Z,0.30
2022-08-28T06:56:49.777Z,0.10
2022-08-28T06:59:17.293Z,0.57
2022-08-28T07:01:44.725Z,0.38
2022-08-28T07:04:14.591Z,0.73
2022-08-28T07:06:46.746Z,1.05
2022-08-28T07:09:15.090Z,0.25
2022-08-28T07:11:46.711Z,0.45
2022-08-28T07:14:14.113Z,1.13
2022-08-28T07:16:41.847Z,0.40
2022-08-28T07:19:11.445Z,0.60
2022-08-28T07:21:48.202Z,0.40
2022-08-28T07:24:17.233Z,0.45
2022-08-28T07:26:46.106Z,0.88
2022-08-28T07:29:14.469Z,0.38
2022-08-28T07:31:49.162Z,1.02
2022-08-28T07:34:18.878Z,0.10
2022-08-28T07:36:46.352Z,0.30
2022-08-28T07:39:15.940Z,0.10
2022-08-28T07:41:43.861Z,0.55
2022-08-28T07:44:31.931Z,0.40
2022-08-28T07:47:04.029Z,0.10
2022-08-28T07:49:33.837Z,0.60
2022-08-28T07:52:02.130Z,0.32
2022-08-28T07:54:29.641Z,0.32
2022-08-28T07:56:57.050Z,0.20
2022-08-28T07:59:24.867Z,0.30
2022-08-28T08:01:53.429Z,0.73
2022-08-28T08:04:22.820Z,0.63
2022-08-28T08:06:57.535Z,0.47
2022-08-28T08:09:26.405Z,1.05
2022-08-28T08:11:55.122Z,0.32
2022-08-28T08:14:23.404Z,0.20
2022-08-28T08:16:52.457Z,0.22
2022-08-28T08:19:20.592Z,1.73
2022-08-28T08:21:54.560Z,0.43
2022-08-28T08:24:26.847Z,0.43
2022-08-28T08:26:59.870Z,0.32
2022-08-28T08:29:35.846Z,1.05
2022-08-28T08:32:08.510Z,0.85
2022-08-28T08:34:42.197Z,0.28
2022-08-28T08:37:10.541Z,0.32
2022-08-28T08:39:38.273Z,0.20
2022-08-28T08:42:25.933Z,0.35
2022-08-28T08:44:56.431Z,0.90
2022-08-28T08:47:57.063Z,0.98
2022-08-28T08:50:29.380Z,0.22
2022-08-28T08:53:23.101Z,0.30
2022-08-28T08:55:53.444Z,0.50
2022-08-28T08:58:44.058Z,0.40
2022-08-28T09:01:39.114Z,0.85
2022-08-28T09:04:49.386Z,0.80
2022-08-28T09:07:23.439Z,0.57
2022-08-28T09:09:53.145Z,0.20
2022-08-28T09:12:26.150Z,0.75
2022-08-28T09:15:11.655Z,0.47
2022-08-28T09:17:50.080Z,1.13
2022-08-28T09:20:21.473Z,0.82
2022-08-28T09:22:59.944Z,0.80
2022-08-28T09:26:12.415Z,0.73
2022-08-28T09:28:41.787Z,0.30
2022-08-28T09:31:41.255Z,0.60
2022-08-28T09:34:30.439Z,0.68
2022-08-28T09:37:02.422Z,1.52
2022-08-28T09:39:32.283Z,0.75
2022-08-28T09:42:41.949Z,0.30
2022-08-28T09:45:21.101Z,0.68
2022-08-28T09:48:18.124Z,0.70
2022-08-28T09:51:16.750Z,2.08
2022-08-28T09:54:32.883Z,0.50
2022-08-28T09:57:01.152Z,1.17
2022-08-28T09:59:29.609Z,0.50
2022-08-28T10:02:13.241Z,1.08
2022-08-28T10:05:16.939Z,0.50
2022-08-28T10:07:56.560Z,0.40
2022-08-28T10:10:48.020Z,0.57
2022-08-28T10:13:23.889Z,0.50
2022-08-28T10:16:42.004Z,0.20
2022-08-28T10:19:45.721Z,0.63
2022-08-28T10:22:36.590Z,0.38
2022-08-28T10:25:25.051Z,0.38
2022-08-28T10:28:33.118Z,0.68
2022-08-28T10:31:11.009Z,0.98
2022-08-28T10:34:05.866Z,1.38
2022-08-28T10:36:35.447Z,0.80
2022-08-28T10:39:43.177Z,0.10
2022-08-28T10:42:11.018Z,0.40
2022-08-28T10:44:51.646Z,0.98
2022-08-28T10:47:22.594Z,0.75
2022-08-28T10:50:01.853Z,0.80
2022-08-28T10:53:07.403Z,0.60
2022-08-28T10:56:04.041Z,0.77
2022-08-28T10:58:34.011Z,0.50
2022-08-28T11:01:07.160Z,0.22
2022-08-28T11:03:43.095Z,0.60
2022-08-28T11:06:25.086Z,1.33
2022-08-28T11:11:44.895Z,0.32
2022-08-28T11:14:31.127Z,1.10
2022-08-28T11:17:42.227Z,0.60
2022-08-28T11:20:22.737Z,0.90
2022-08-28T11:22:56.292Z,0.57
2022-08-28T11:25:32.833Z,0.73
2022-08-28T11:28:47.455Z,0.20
2022-08-28T11:31:36.673Z,1.02
2022-08-28T11:34:05.647Z,0.40
2022-08-28T11:36:56.939Z,0.30
2022-08-28T11:39:24.451Z,0.30
2022-08-28T11:42:32.234Z,0.50
2022-08-28T11:45:00.757Z,1.08
2022-08-28T11:47:53.026Z,0.63
2022-08-28T11:50:26.933Z,0.63
2022-08-28T11:53:12.037Z,1.13
2022-08-28T11:56:40.582Z,0.70
2022-08-28T11:59:35.907Z,1.20
2022-08-28T12:02:46.668Z,1.10
2022-08-28T12:05:39.940Z,0.30
2022-08-28T12:08:09.008Z,0.65
2022-08-28T12:10:55.888Z,0.65
2022-08-28T12:13:48.800Z,0.40
2022-08-28T12:16:16.407Z,0.20
2022-08-28T12:19:10.181Z,0.90
2022-08-28T12:21:39.140Z,0.55
2022-08-28T12:24:24.097Z,0.85
2022-08-28T12:26:54.750Z,0.20
2022-08-28T12:29:34.971Z,0.40
2022-08-28T12:32:38.679Z,0.52
2022-08-28T12:35:21.089Z,0.47
2022-08-28T12:38:18.966Z,0.82
2022-08-28T12:40:53.468Z,0.40
2022-08-28T12:43:31.886Z,0.60
2022-08-28T12:46:30.199Z,0.25
2022-08-28T12:49:01.254Z,0.22
2022-08-28T12:51:34.655Z,0.70
2022-08-28T12:54:07.125Z,0.98
2022-08-28T12:56:38.056Z,0.45
2022-08-28T12:59:39.585Z,0.87
2022-08-28T13:02:19.293Z,0.30
2022-08-28T13:05:00.923Z,0.20
2022-08-28T13:07:40.650Z,0.70
2022-08-28T13:10:49.721Z,0.30
2022-08-28T13:13:30.403Z,1.48
2022-08-28T13:16:03.955Z,0.20
2022-08-28T13:18:45.815Z,0.65
2022-08-28T13:24:27.459Z,0.52
2022-08-28T13:27:24.387Z,0.15
2022-08-28T13:30:01.591Z,0.10
2022-08-28T13:32:36.115Z,0.52
2022-08-28T13:35:37.968Z,0.30
2022-08-28T13:38:12.512Z,0.45
2022-08-28T13:40:59.061Z,0.45
2022-08-28T13:43:41.793Z,0.40
2022-08-28T13:46:09.211Z,0.20
2022-08-28T13:48:36.580Z,0.57
2022-08-28T13:51:10.675Z,0.77
2022-08-28T13:53:39.448Z,0.10
2022-08-28T13:56:06.967Z,0.15
2022-08-28T13:58:34.355Z,0.52
2022-08-28T14:01:02.511Z,0.57
2022-08-28T14:03:36.017Z,0.50
2022-08-28T14:06:07.052Z,1.25
2022-08-28T14:08:34.710Z,0.20
2022-08-28T14:11:03.734Z,0.20
2022-08-28T14:13:31.436Z,0.52
2022-08-28T14:15:58.886Z,0.60
2022-08-28T14:18:26.554Z,0.47
2022-08-28T14:20:53.982Z,0.90
2022-08-28T14:23:21.557Z,0.20
2022-08-28T14:25:49.223Z,0.25
2022-08-28T14:28:17.403Z,0.45
2022-08-28T14:30:50.216Z,0.10
2022-08-28T14:33:20.863Z,0.40
2022-08-28T14:35:49.133Z,0.20
2022-08-28T14:38:16.827Z,0.68
2022-08-28T14:40:45.021Z,0.30
2022-08-28T14:43:14.057Z,0.30
2022-08-28T14:45:44.057Z,0.38
2022-08-28T14:48:11.836Z,0.28
2022-08-28T14:50:44.353Z,0.25
2022-08-28T14:53:13.826Z,0.22
2022-08-28T14:55:47.387Z,0.30
2022-08-28T14:58:16.176Z,0.90
2022-08-28T15:00:47.234Z,0.95
2022-08-28T15:03:16.344Z,0.43
2022-08-28T15:05:44.275Z,0.20
2022-08-28T15:08:14.608Z,0.32
2022-08-28T15:10:43.344Z,0.57
2022-08-28T15:13:11.249Z,0.28
2022-08-28T15:15:41.297Z,0.20
2022-08-28T15:18:10.365Z,0.30
2022-08-28T15:20:39.797Z,0.20
2022-08-28T15:23:07.695Z,0.75
2022-08-28T15:25:35.326Z,0.80
2022-08-28T15:28:03.030Z,0.05
2022-08-28T15:30:30.416Z,0.63
2022-08-28T15:32:58.191Z,0.65
2022-08-28T15:35:25.660Z,0.30
2022-08-28T15:37:53.646Z,0.25
2022-08-28T15:40:40.022Z,0.20
2022-08-28T15:43:07.641Z,0.20
2022-08-28T15:45:39.458Z,0.20
2022-08-28T15:48:08.328Z,0.55
2022-08-28T15:50:35.728Z,0.28
2022-08-28T15:53:04.325Z,0.75
2022-08-28T15:55:34.150Z,0.50
2022-08-28T15:58:07.390Z,0.55
2022-08-28T16:00:42.105Z,0.52
2022-08-28T16:03:09.673Z,0.30
2022-08-28T16:05:39.675Z,0.63
2022-08-28T16:08:10.415Z,0.75
2022-08-28T16:10:38.095Z,0.70
2022-08-28T16:13:06.790Z,0.20
2022-08-28T16:15:34.981Z,0.10
2022-08-28T16:18:02.447Z,0.28
2022-08-28T16:20:29.876Z,0.00
2022-08-28T16:22:57.309Z,0.50
2022-08-28T16:25:24.664Z,0.52
2022-08-28T16:27:52.104Z,0.10
2022-08-28T16:30:20.423Z,0.60
2022-08-28T16:32:52.028Z,0.52
2022-08-28T16:35:22.323Z,0.45
2022-08-28T16:37:50.371Z,1.00
2022-08-28T16:40:17.946Z,0.40
2022-08-28T16:42:51.764Z,0.47
2022-08-28T16:45:20.366Z,0.32
2022-08-28T16:47:48.141Z,0.28
2022-08-28T16:50:16.146Z,0.10
2022-08-28T16:52:43.573Z,0.65
2022-08-28T16:55:11.881Z,0.60
2022-08-28T16:57:39.686Z,0.63
2022-08-28T17:00:12.380Z,0.63
2022-08-28T17:02:42.398Z,0.80
2022-08-28T17:05:11.996Z,0.10
2022-08-28T17:07:39.954Z,0.10
2022-08-28T17:10:09.074Z,0.52
2022-08-28T17:12:36.496Z,0.20
2022-08-28T17:15:05.067Z,0.85
2022-08-28T17:17:33.077Z,0.47
2022-08-28T17:20:00.557Z,0.15
2022-08-28T17:22:32.988Z,0.30
2022-08-28T17:25:07.727Z,0.20
2022-08-28T17:27:36.715Z,0.13
2022-08-28T17:30:05.117Z,0.35
2022-08-28T17:32:32.654Z,0.40
2022-08-28T17:35:00.542Z,0.60
2022-08-28T17:37:28.296Z,0.30
2022-08-28T17:39:55.716Z,0.22
2022-08-28T17:42:23.295Z,0.40
2022-08-28T17:44:51.166Z,0.20
2022-08-28T17:47:18.581Z,0.13
2022-08-28T17:49:53.676Z,0.00
2022-08-28T17:52:21.378Z,0.47
2022-08-28T17:54:48.703Z,0.25
2022-08-28T17:57:16.767Z,0.20
2022-08-28T17:59:44.196Z,0.20
2022-08-28T18:02:12.058Z,0.28
2022-08-28T18:04:39.439Z,0.38
2022-08-28T18:07:06.885Z,0.17
2022-08-28T18:09:35.027Z,0.03
2022-08-28T18:12:02.645Z,0.25
2022-08-28T18:14:31.270Z,0.17
2022-08-28T18:16:58.765Z,0.10
2022-08-28T18:19:26.156Z,0.60
2022-08-28T18:21:53.901Z,0.60
2022-08-28T18:24:21.314Z,0.20
2022-08-28T18:26:48.743Z,0.25
2022-08-28T18:29:16.215Z,0.75
2022-08-28T18:31:43.782Z,0.52
2022-08-28T18:34:11.285Z,1.23
2022-08-28T18:36:41.562Z,0.75
2022-08-28T18:39:09.965Z,0.70
2022-08-28T18:41:44.543Z,0.25
2022-08-28T18:44:14.262Z,0.98
2022-08-28T18:46:42.865Z,0.57
2022-08-28T18:49:11.814Z,0.40
2022-08-28T18:51:41.825Z,1.38
2022-08-28T18:54:10.036Z,1.27
2022-08-28T18:56:40.110Z,0.47
2022-08-28T18:59:08.926Z,0.68
2022-08-28T19:01:36.471Z,3.00
2022-08-28T19:04:04.573Z,3.97
2022-08-28T19:06:32.572Z,2.92
2022-08-28T19:09:00.696Z,1.95
2022-08-28T19:11:31.318Z,1.95
2022-08-28T19:13:59.561Z,1.50
2022-08-28T19:16:32.237Z,1.58
2022-08-28T19:19:01.207Z,2.40
2022-08-28T19:21:29.189Z,1.65
2022-08-28T19:23:57.048Z,1.05
2022-08-28T19:26:28.672Z,2.17
2022-08-28T19:28:56.975Z,0.82
2022-08-28T19:31:25.701Z,0.65
2022-08-28T19:33:53.833Z,0.50
2022-08-28T19:36:21.625Z,1.00
2022-08-28T19:38:49.032Z,0.88
2022-08-28T19:41:16.569Z,0.98
2022-08-28T19:43:44.580Z,1.13
2022-08-28T19:46:19.655Z,0.70
2022-08-28T19:48:49.747Z,1.15
2022-08-28T19:51:23.203Z,0.95
2022-08-28T19:53:57.825Z,0.38
2022-08-28T19:56:31.559Z,0.47
2022-08-28T19:59:01.435Z,0.65
2022-08-28T20:01:31.424Z,0.70
2022-08-28T20:03:59.860Z,0.57
2022-08-28T20:06:28.403Z,1.00
2022-08-28T20:08:55.896Z,0.38
2022-08-28T20:11:30.289Z,0.20
2022-08-28T20:14:04.824Z,0.60
2022-08-28T20:16:35.330Z,2.03
2022-08-28T20:19:04.077Z,0.90
2022-08-28T20:21:37.270Z,0.38
2022-08-28T20:24:08.026Z,0.55
2022-08-28T20:26:36.532Z,0.45
2022-08-28T20:29:06.178Z,0.52
2022-08-28T20:31:33.706Z,0.15
2022-08-28T20:34:01.248Z,0.30
2022-08-28T20:36:28.659Z,0.38
2022-08-28T20:38:56.938Z,1.13
2022-08-28T20:41:24.923Z,1.15
2022-08-28T20:43:52.365Z,0.38
2022-08-28T20:46:20.266Z,1.23
2022-08-28T20:48:47.772Z,0.70
2022-08-28T20:51:15.139Z,1.15
2022-08-28T20:53:42.533Z,0.47
2022-08-28T20:56:10.564Z,0.13
2022-08-28T20:58:38.437Z,0.63
2022-08-28T21:01:06.132Z,0.75
2022-08-28T21:03:33.827Z,0.65
2022-08-28T21:06:01.534Z,0.30
2022-08-28T21:08:29.223Z,0.57
2022-08-28T21:10:56.746Z,0.52
2022-08-28T21:13:24.160Z,0.68
2022-08-28T21:15:51.515Z,0.90
2022-08-28T21:18:18.918Z,0.68
2022-08-28T21:20:46.548Z,0.40
2022-08-28T21:23:14.235Z,0.45
2022-08-28T21:25:41.731Z,0.40
2022-08-28T21:28:09.232Z,0.68
2022-08-28T21:30:37.491Z,0.85
2022-08-28T21:33:05.346Z,0.90
2022-08-28T21:35:32.832Z,1.35
2022-08-28T21:38:00.285Z,0.90
2022-08-28T21:40:27.744Z,1.05
2022-08-28T21:42:55.190Z,1.38
2022-08-28T21:45:22.569Z,0.90
2022-08-28T21:47:49.957Z,0.45
2022-08-28T21:50:17.630Z,0.93
2022-08-28T21:52:45.672Z,0.38
2022-08-28T21:55:15.507Z,0.55
2022-08-28T21:57:43.108Z,0.57
2022-08-28T22:00:17.361Z,0.20
2022-08-28T22:02:44.933Z,0.70
2022-08-28T22:05:12.636Z,0.60
2022-08-28T22:07:40.500Z,0.25
2022-08-28T22:10:09.511Z,0.50
2022-08-28T22:12:37.008Z,0.90
2022-08-28T22:15:05.428Z,0.10
2022-08-28T22:17:32.858Z,0.65
2022-08-28T22:20:00.219Z,0.40
2022-08-28T22:22:46.546Z,0.40
2022-08-28T22:25:13.999Z,0.50
2022-08-28T22:27:41.650Z,0.65
2022-08-28T22:30:09.713Z,1.00
2022-08-28T22:32:37.094Z,0.70
2022-08-28T22:35:04.924Z,0.77
2022-08-28T22:37:32.506Z,1.27
2022-08-28T22:40:00.014Z,0.50
2022-08-28T22:42:27.741Z,0.50
2022-08-28T22:44:55.093Z,0.63
2022-08-28T22:47:22.864Z,0.40
2022-08-28T22:49:50.332Z,0.57
2022-08-28T22:52:17.967Z,0.63
2022-08-28T22:54:45.657Z,0.47
2022-08-28T22:57:14.370Z,0.63
2022-08-28T22:59:42.184Z,0.77
2022-08-28T23:02:11.458Z,0.20
2022-08-28T23:04:39.722Z,0.32
2022-08-28T23:07:07.209Z,0.20
2022-08-28T23:09:35.990Z,0.90
2022-08-28T23:12:10.630Z,1.38
2022-08-28T23:14:37.999Z,0.70
2022-08-28T23:17:05.403Z,0.47
2022-08-28T23:19:33.884Z,0.40
2022-08-28T23:22:01.325Z,0.43
2022-08-28T23:24:28.737Z,0.88
2022-08-28T23:26:56.151Z,0.63
2022-08-28T23:29:23.694Z,0.50
2022-08-28T23:31:51.185Z,0.38
2022-08-28T23:34:18.552Z,0.15
2022-08-28T23:36:45.951Z,0.00
2022-08-28T23:39:14.047Z,0.30
2022-08-28T23:41:41.668Z,0.03
2022-08-28T23:44:09.414Z,0.98
2022-08-28T23:46:41.668Z,0.82
2022-08-28T23:49:10.783Z,0.25
2022-08-28T23:51:38.958Z,0.57
2022-08-28T23:54:07.348Z,0.22
2022-08-28T23:56:35.343Z,0.47
2022-08-28T23:59:03.489Z,0.93
